createdAt,value
2023-02-06T00:01:29.254Z,-6.12
2023-02-06T00:03:58.122Z,-5.94
2023-02-06T00:06:26.409Z,-5.88
2023-02-06T00:08:57.412Z,-5.96
2023-02-06T00:11:25.832Z,-5.95
2023-02-06T00:13:55.557Z,-5.98
2023-02-06T00:16:25.194Z,-5.90
2023-02-06T00:18:55.473Z,-5.81
2023-02-06T00:21:26.024Z,-5.72
2023-02-06T00:23:55.210Z,-5.66
2023-02-06T00:26:24.925Z,-5.59
2023-02-06T00:28:55.451Z,-5.74
2023-02-06T00:31:23.956Z,-5.92
2023-02-06T00:33:52.345Z,-6.16
2023-02-06T00:36:20.881Z,-6.23
2023-02-06T00:38:49.278Z,-6.17
2023-02-06T00:41:17.729Z,-6.19
2023-02-06T00:43:46.426Z,-6.25
2023-02-06T00:46:16.206Z,-6.22
2023-02-06T00:48:46.434Z,-6.16
2023-02-06T00:51:14.812Z,-6.29
2023-02-06T00:53:43.127Z,-6.36
2023-02-06T00:56:13.866Z,-6.18
2023-02-06T00:58:42.193Z,-6.22
2023-02-06T01:01:12.854Z,-6.26
2023-02-06T01:03:42.669Z,-6.08
2023-02-06T01:06:11.072Z,-6.19
2023-02-06T01:08:39.383Z,-6.16
2023-02-06T01:11:11.812Z,-6.00
2023-02-06T01:13:40.190Z,-6.12
2023-02-06T01:16:10.414Z,-6.11
2023-02-06T01:18:39.253Z,-6.26
2023-02-06T01:21:11.344Z,-6.32
2023-02-06T01:23:41.495Z,-6.20
2023-02-06T01:26:11.098Z,-6.17
2023-02-06T01:28:39.881Z,-6.23
2023-02-06T01:31:12.584Z,-6.32
2023-02-06T01:33:41.316Z,-6.53
2023-02-06T01:36:14.738Z,-6.60
2023-02-06T01:38:43.653Z,-6.46
2023-02-06T01:41:13.298Z,-6.51
2023-02-06T01:43:43.639Z,-6.61
2023-02-06T01:46:12.665Z,-6.56
2023-02-06T01:48:43.715Z,-6.32
2023-02-06T01:51:16.874Z,-6.31
2023-02-06T01:54:02.392Z,-5.97
2023-02-06T01:56:34.512Z,-6.43
2023-02-06T01:59:05.471Z,-6.38
2023-02-06T02:01:34.769Z,-6.38
2023-02-06T02:04:06.433Z,-6.33
2023-02-06T02:06:36.253Z,-6.42
2023-02-06T02:09:09.420Z,-6.63
2023-02-06T02:11:39.542Z,-6.78
2023-02-06T02:14:10.126Z,-6.84
2023-02-06T02:16:48.182Z,-6.84
2023-02-06T02:20:12.582Z,-6.66
2023-02-06T02:23:06.325Z,-6.81
2023-02-06T02:25:55.196Z,-7.04
2023-02-06T02:28:48.884Z,-7.05
2023-02-06T02:31:35.831Z,-7.18
2023-02-06T02:34:42.580Z,-7.33
2023-02-06T02:37:19.280Z,-7.27
2023-02-06T02:39:49.794Z,-7.11
2023-02-06T02:42:22.086Z,-7.01
2023-02-06T02:44:54.252Z,-7.19
2023-02-06T02:47:27.480Z,-7.26
2023-02-06T02:49:57.852Z,-7.10
2023-02-06T02:52:27.924Z,-7.04
2023-02-06T02:54:56.326Z,-7.05
2023-02-06T02:57:28.605Z,-7.12
2023-02-06T02:59:59.885Z,-7.26
2023-02-06T03:02:34.945Z,-7.37
2023-02-06T03:05:05.859Z,-7.51
2023-02-06T03:07:41.953Z,-7.48
2023-02-06T03:10:15.879Z,-7.51
2023-02-06T03:12:47.487Z,-7.60
2023-02-06T03:15:25.844Z,-7.60
2023-02-06T03:17:57.183Z,-7.73
2023-02-06T03:20:26.149Z,-7.68
2023-02-06T03:22:56.663Z,-7.55
2023-02-06T03:25:29.540Z,-7.49
2023-02-06T03:27:59.341Z,-7.41
2023-02-06T03:30:29.861Z,-7.37
2023-02-06T03:33:01.531Z,-7.41
2023-02-06T03:35:33.670Z,-7.23
2023-02-06T03:38:03.976Z,-7.13
2023-02-06T03:40:32.415Z,-7.06
2023-02-06T03:43:03.913Z,-7.16
2023-02-06T03:45:34.479Z,-7.30
2023-02-06T03:48:07.686Z,-7.30
2023-02-06T03:50:36.381Z,-7.44
2023-02-06T03:53:06.634Z,-7.59
2023-02-06T03:55:36.026Z,-7.55
2023-02-06T03:58:07.506Z,-7.52
2023-02-06T04:00:36.486Z,-7.57
2023-02-06T04:03:05.978Z,-7.51
2023-02-06T04:05:34.588Z,-7.45
2023-02-06T04:08:03.156Z,-7.43
2023-02-06T04:10:32.929Z,-7.48
2023-02-06T04:13:01.235Z,-7.45
2023-02-06T04:15:31.308Z,-7.50
2023-02-06T04:18:01.738Z,-7.29
2023-02-06T04:20:30.730Z,-7.30
2023-02-06T04:22:59.623Z,-7.21
2023-02-06T04:25:27.936Z,-7.12
2023-02-06T04:27:57.804Z,-6.97
2023-02-06T04:30:26.476Z,-7.05
2023-02-06T04:32:54.859Z,-7.17
2023-02-06T04:35:23.236Z,-7.14
2023-02-06T04:37:52.356Z,-7.24
2023-02-06T04:40:21.565Z,-7.24
2023-02-06T04:42:49.923Z,-7.06
2023-02-06T04:45:19.703Z,-7.01
2023-02-06T04:47:49.542Z,-6.94
2023-02-06T04:50:18.300Z,-6.82
2023-02-06T04:52:46.610Z,-6.88
2023-02-06T04:55:14.905Z,-7.04
2023-02-06T04:57:43.549Z,-7.16
2023-02-06T05:00:13.573Z,-7.30
2023-02-06T05:02:43.752Z,-7.30
2023-02-06T05:05:12.021Z,-7.40
2023-02-06T05:07:40.324Z,-7.44
2023-02-06T05:10:10.129Z,-7.37
2023-02-06T05:12:38.812Z,-7.35
2023-02-06T05:15:07.955Z,-7.44
2023-02-06T05:17:36.315Z,-7.45
2023-02-06T05:20:07.310Z,-7.46
2023-02-06T05:22:35.687Z,-7.51
2023-02-06T05:25:04.304Z,-7.56
2023-02-06T05:27:33.478Z,-7.58
2023-02-06T05:30:01.904Z,-7.58
2023-02-06T05:32:30.320Z,-7.53
2023-02-06T05:34:58.585Z,-7.46
2023-02-06T05:37:28.475Z,-7.44
2023-02-06T05:39:58.539Z,-7.40
2023-02-06T05:42:27.949Z,-7.37
2023-02-06T05:44:56.208Z,-7.26
2023-02-06T05:47:24.668Z,-7.21
2023-02-06T05:49:54.459Z,-7.17
2023-02-06T05:52:22.760Z,-7.15
2023-02-06T05:54:52.560Z,-7.21
2023-02-06T05:57:21.420Z,-7.24
2023-02-06T05:59:49.658Z,-7.27
2023-02-06T06:02:18.261Z,-7.27
2023-02-06T06:04:46.765Z,-7.33
2023-02-06T06:07:15.290Z,-7.34
2023-02-06T06:09:43.648Z,-7.31
2023-02-06T06:12:13.470Z,-7.29
2023-02-06T06:14:43.159Z,-7.29
2023-02-06T06:17:11.490Z,-7.32
2023-02-06T06:19:39.896Z,-7.31
2023-02-06T06:22:08.321Z,-7.30
2023-02-06T06:24:37.557Z,-7.31
2023-02-06T06:27:08.473Z,-7.33
2023-02-06T06:29:38.378Z,-7.29
2023-02-06T06:32:07.079Z,-7.30
2023-02-06T06:34:35.743Z,-7.28
2023-02-06T06:37:04.219Z,-7.27
2023-02-06T06:39:32.492Z,-7.22
2023-02-06T06:42:00.862Z,-7.20
2023-02-06T06:44:29.293Z,-7.18
2023-02-06T06:46:59.126Z,-7.14
2023-02-06T06:49:29.016Z,-7.08
2023-02-06T06:51:57.393Z,-7.04
2023-02-06T06:54:25.674Z,-6.88
2023-02-06T06:56:54.722Z,-6.88
2023-02-06T06:59:23.077Z,-6.85
2023-02-06T07:01:54.810Z,-6.88
2023-02-06T07:04:28.556Z,-6.90
2023-02-06T07:06:56.854Z,-6.94
2023-02-06T07:09:25.418Z,-6.91
2023-02-06T07:11:53.730Z,-6.88
2023-02-06T07:14:22.274Z,-6.86
2023-02-06T07:16:50.766Z,-6.86
2023-02-06T07:19:19.156Z,-6.81
2023-02-06T07:21:48.828Z,-6.81
2023-02-06T07:24:18.360Z,-6.76
2023-02-06T07:26:46.760Z,-6.68
2023-02-06T07:29:15.434Z,-6.59
2023-02-06T07:31:43.833Z,-6.52
2023-02-06T07:34:13.522Z,-6.30
2023-02-06T07:36:41.842Z,-6.15
2023-02-06T07:39:11.830Z,-6.12
2023-02-06T07:41:40.162Z,-5.96
2023-02-06T07:44:09.575Z,-5.87
2023-02-06T07:46:38.671Z,-5.68
2023-02-06T07:49:07.353Z,-5.57
2023-02-06T07:51:35.833Z,-5.56
2023-02-06T07:54:04.416Z,-5.43
2023-02-06T07:59:36.786Z,-5.35
2023-02-06T08:02:06.472Z,-5.42
2023-02-06T08:04:37.610Z,-5.28
2023-02-06T08:07:07.166Z,-5.14
2023-02-06T08:09:35.903Z,-5.04
2023-02-06T08:12:04.326Z,-5.16
2023-02-06T08:14:32.804Z,-5.06
2023-02-06T08:17:02.623Z,-4.87
2023-02-06T08:19:31.013Z,-4.82
2023-02-06T08:21:59.588Z,-4.57
2023-02-06T08:24:28.291Z,-4.48
2023-02-06T08:26:56.767Z,-4.64
2023-02-06T08:29:25.596Z,-4.84
2023-02-06T08:31:56.854Z,-4.73
2023-02-06T08:34:26.750Z,-4.53
2023-02-06T08:46:28.502Z,-3.81
2023-02-06T08:48:58.152Z,-3.72
2023-02-06T08:51:28.982Z,-3.61
2023-02-06T08:53:58.559Z,-3.28
2023-02-06T10:10:52.362Z,-0.65
2023-02-06T10:19:44.225Z,-0.50
2023-02-06T10:22:16.427Z,-0.08
2023-02-06T10:24:49.351Z,-0.09
2023-02-06T10:27:19.401Z,0.46
2023-02-06T10:29:48.512Z,0.80
2023-02-06T10:32:31.867Z,0.79
2023-02-06T10:35:14.922Z,0.57
2023-02-06T10:38:07.707Z,0.93
2023-02-06T10:40:41.426Z,1.23
2023-02-06T10:43:18.795Z,1.56
2023-02-06T10:45:51.884Z,2.00
2023-02-06T10:48:31.643Z,1.74
2023-02-06T10:51:09.086Z,1.35
2023-02-06T10:53:40.063Z,2.14
2023-02-06T10:56:11.030Z,2.35
2023-02-06T10:58:42.979Z,2.00
2023-02-06T11:01:24.973Z,1.90
2023-02-06T11:03:57.689Z,1.94
2023-02-06T11:06:28.370Z,1.43
2023-02-06T11:08:56.763Z,1.30
2023-02-06T11:11:26.987Z,1.50
2023-02-06T11:13:59.852Z,1.31
2023-02-06T11:16:31.121Z,1.05
2023-02-06T11:19:02.245Z,-0.15
2023-02-06T11:21:51.885Z,0.19
2023-02-06T11:24:22.515Z,0.27
2023-02-06T11:26:54.720Z,0.25
2023-02-06T11:29:26.986Z,0.41
2023-02-06T11:31:58.699Z,-0.05
2023-02-06T11:34:32.682Z,0.03
2023-02-06T11:37:02.846Z,0.03
2023-02-06T11:39:33.854Z,0.57
2023-02-06T11:42:04.705Z,0.92
2023-02-06T11:44:39.344Z,0.69
2023-02-06T11:47:38.331Z,0.67
2023-02-06T11:50:25.865Z,1.33
2023-02-06T11:53:00.085Z,1.47
2023-02-06T11:55:30.105Z,1.47
2023-02-06T11:58:09.349Z,1.58
2023-02-06T12:00:40.524Z,2.04
2023-02-06T12:03:30.929Z,2.37
2023-02-06T12:06:03.204Z,2.55
2023-02-06T12:08:41.083Z,2.14
2023-02-06T12:11:15.911Z,1.56
2023-02-06T12:13:49.156Z,0.97
2023-02-06T12:16:19.231Z,0.88
2023-02-06T12:18:51.128Z,0.48
2023-02-06T12:21:27.051Z,0.64
2023-02-06T12:23:58.366Z,1.20
2023-02-06T12:26:29.765Z,1.00
2023-02-06T12:29:01.637Z,0.80
2023-02-06T12:31:38.008Z,0.70
2023-02-06T12:34:13.729Z,0.65
2023-02-06T12:36:53.495Z,0.74
2023-02-06T12:39:23.513Z,0.68
2023-02-06T12:42:09.581Z,0.91
2023-02-06T12:44:42.393Z,1.23
2023-02-06T12:47:15.916Z,1.37
2023-02-06T12:49:50.796Z,0.54
2023-02-06T12:52:23.970Z,0.16
2023-02-06T12:54:55.295Z,0.12
2023-02-06T12:57:25.865Z,0.51
2023-02-06T13:00:23.192Z,0.42
2023-02-06T13:03:24.946Z,0.02
2023-02-06T13:05:56.680Z,-0.03
2023-02-06T13:08:28.569Z,0.15
2023-02-06T13:11:02.661Z,0.01
2023-02-06T13:13:33.035Z,-0.23
2023-02-06T13:16:02.780Z,-0.25
2023-02-06T13:19:04.453Z,-0.48
2023-02-06T13:21:36.871Z,-0.45
2023-02-06T13:24:20.708Z,-0.56
2023-02-06T13:27:11.968Z,-0.27
2023-02-06T13:29:41.769Z,-0.50
2023-02-06T13:32:53.448Z,-0.15
2023-02-06T13:35:25.725Z,-0.13
2023-02-06T13:38:28.263Z,-0.28
2023-02-06T13:41:19.332Z,-0.50
2023-02-06T13:43:50.811Z,-0.42
2023-02-06T13:46:22.131Z,-0.47
2023-02-06T13:49:13.825Z,-0.58
2023-02-06T13:51:50.410Z,-0.79
2023-02-06T13:54:51.679Z,-0.77
2023-02-06T13:57:50.640Z,-0.76
2023-02-06T14:00:21.594Z,-0.87
2023-02-06T14:02:52.920Z,-1.03
2023-02-06T14:05:22.568Z,-1.28
2023-02-06T14:08:09.829Z,-1.20
2023-02-06T14:11:06.406Z,-1.33
2023-02-06T14:13:45.998Z,-1.10
2023-02-06T14:16:23.361Z,-0.92
2023-02-06T14:18:56.630Z,-0.83
2023-02-06T14:21:35.864Z,-1.12
2023-02-06T14:24:32.722Z,-1.26
2023-02-06T14:27:15.879Z,-1.19
2023-02-06T14:29:49.507Z,-1.28
2023-02-06T14:32:36.678Z,-1.33
2023-02-06T14:35:36.050Z,-1.13
2023-02-06T14:38:22.907Z,-0.96
2023-02-06T14:40:52.901Z,-0.91
2023-02-06T14:43:25.515Z,-0.99
2023-02-06T14:46:06.266Z,-1.02
2023-02-06T14:48:46.218Z,-1.08
2023-02-06T14:51:23.776Z,-0.97
2023-02-06T14:53:54.113Z,-1.10
2023-02-06T14:56:28.612Z,-1.08
2023-02-06T14:59:09.544Z,-1.02
2023-02-06T15:01:37.913Z,-1.13
2023-02-06T15:04:12.325Z,-1.16
2023-02-06T15:06:42.569Z,-1.24
2023-02-06T15:09:24.354Z,-1.38
2023-02-06T15:11:53.262Z,-1.60
2023-02-06T15:14:25.143Z,-1.61
2023-02-06T15:16:53.565Z,-1.66
2023-02-06T15:19:25.622Z,-1.45
2023-02-06T15:21:58.280Z,-1.61
2023-02-06T15:24:46.116Z,-1.70
2023-02-06T15:27:20.636Z,-1.64
2023-02-06T15:29:51.494Z,-1.61
2023-02-06T15:32:28.012Z,-1.62
2023-02-06T15:34:56.486Z,-1.74
2023-02-06T15:37:27.676Z,-1.66
2023-02-06T15:39:56.497Z,-1.63
2023-02-06T15:42:25.227Z,-1.80
2023-02-06T15:44:55.088Z,-1.79
2023-02-06T15:47:23.550Z,-2.06
2023-02-06T15:49:53.310Z,-2.16
2023-02-06T16:24:16.667Z,-3.24
2023-02-06T16:39:19.310Z,-3.67
2023-02-06T16:41:50.976Z,-3.73
2023-02-06T16:44:19.560Z,-3.76
2023-02-06T16:46:48.423Z,-3.81
2023-02-06T16:49:19.484Z,-3.84
2023-02-06T16:51:51.535Z,-3.88
2023-02-06T16:54:24.533Z,-3.93
2023-02-06T16:56:53.682Z,-3.90
2023-02-06T16:59:22.523Z,-3.90
2023-02-06T17:01:51.421Z,-3.96
2023-02-06T17:04:20.871Z,-3.99
2023-02-06T17:06:50.420Z,-4.02
2023-02-06T17:09:19.626Z,-4.08
2023-02-06T17:11:49.384Z,-4.14
2023-02-06T17:14:19.009Z,-4.19
2023-02-06T17:16:47.740Z,-4.23
2023-02-06T17:19:16.105Z,-4.28
2023-02-06T17:21:44.462Z,-4.36
2023-02-06T17:24:13.437Z,-4.43
2023-02-06T17:26:42.322Z,-4.44
2023-02-06T17:29:15.116Z,-4.48
2023-02-06T17:31:44.567Z,-4.52
2023-02-06T17:34:13.389Z,-4.58
2023-02-06T17:36:43.252Z,-4.61
2023-02-06T17:39:13.490Z,-4.67
2023-02-06T17:41:43.365Z,-4.67
2023-02-06T17:44:19.069Z,-4.71
2023-02-06T17:46:49.501Z,-4.74
2023-02-06T17:49:19.699Z,-4.78
2023-02-06T17:51:50.103Z,-4.83
2023-02-06T17:54:19.608Z,-4.83
2023-02-06T17:56:48.482Z,-4.84
2023-02-06T17:59:19.520Z,-4.83
2023-02-06T18:01:49.166Z,-4.79
2023-02-06T18:04:24.488Z,-4.74
2023-02-06T18:06:55.050Z,-4.88
2023-02-06T18:09:24.555Z,-4.96
2023-02-06T18:11:53.236Z,-4.92
2023-02-06T18:14:23.330Z,-5.01
2023-02-06T18:16:53.442Z,-4.86
2023-02-06T18:19:25.182Z,-4.82
2023-02-06T18:21:54.851Z,-4.57
2023-02-06T18:24:24.388Z,-4.56
2023-02-06T18:26:53.777Z,-4.55
2023-02-06T18:29:37.206Z,-4.20
2023-02-06T18:32:13.933Z,-4.30
2023-02-06T18:34:43.988Z,-4.59
2023-02-06T18:37:17.105Z,-4.83
2023-02-06T18:39:46.645Z,-4.99
2023-02-06T18:42:34.511Z,-5.14
2023-02-06T18:45:06.496Z,-5.21
2023-02-06T18:47:37.190Z,-5.31
2023-02-06T18:50:08.372Z,-5.24
2023-02-06T18:52:42.055Z,-5.21
2023-02-06T18:55:13.066Z,-5.24
2023-02-06T18:57:43.617Z,-5.27
2023-02-06T19:00:20.093Z,-5.24
2023-02-06T19:02:50.108Z,-5.11
2023-02-06T19:05:20.713Z,-5.12
2023-02-06T19:07:52.850Z,-5.29
2023-02-06T19:10:23.852Z,-5.41
2023-02-06T19:12:53.917Z,-5.40
2023-02-06T19:15:27.241Z,-5.43
2023-02-06T19:17:56.976Z,-5.42
2023-02-06T19:20:27.186Z,-5.51
2023-02-06T19:22:57.598Z,-5.44
2023-02-06T19:25:27.670Z,-5.52
2023-02-06T19:27:58.601Z,-5.57
2023-02-06T19:30:30.217Z,-5.66
2023-02-06T19:33:00.256Z,-5.66
2023-02-06T19:35:30.408Z,-5.69
2023-02-06T19:38:01.406Z,-5.79
2023-02-06T19:40:34.861Z,-5.85
2023-02-06T19:43:05.194Z,-5.75
2023-02-06T19:45:38.007Z,-5.73
2023-02-06T19:48:12.865Z,-5.57
2023-02-06T19:50:45.916Z,-5.61
2023-02-06T19:53:17.002Z,-5.66
2023-02-06T19:55:50.557Z,-5.64
2023-02-06T19:58:20.537Z,-5.27
2023-02-06T20:00:52.043Z,-5.66
2023-02-06T20:03:22.069Z,-5.52
2023-02-06T20:05:54.384Z,-5.84
2023-02-06T20:08:24.494Z,-5.94
2023-02-06T20:10:55.581Z,-5.82
2023-02-06T20:13:25.635Z,-5.97
2023-02-06T20:16:04.115Z,-6.13
2023-02-06T20:18:34.975Z,-6.17
2023-02-06T20:21:05.537Z,-6.15
2023-02-06T20:23:38.715Z,-6.23
2023-02-06T20:26:11.259Z,-6.30
2023-02-06T20:28:40.620Z,-6.36
2023-02-06T20:31:13.593Z,-6.44
2023-02-06T20:33:46.666Z,-6.49
2023-02-06T20:36:18.192Z,-6.43
2023-02-06T20:38:49.824Z,-6.43
2023-02-06T20:41:20.429Z,-6.46
2023-02-06T20:43:49.789Z,-6.46
2023-02-06T20:46:21.875Z,-6.36
2023-02-06T20:48:56.137Z,-6.36
2023-02-06T20:51:26.541Z,-6.55
2023-02-06T20:53:55.978Z,-6.61
2023-02-06T20:56:26.009Z,-6.57
2023-02-06T20:58:56.604Z,-6.60
2023-02-06T21:01:29.816Z,-6.55
2023-02-06T21:03:59.836Z,-6.44
2023-02-06T21:06:30.476Z,-6.50
2023-02-06T21:09:01.362Z,-6.48
2023-02-06T21:11:35.001Z,-6.35
2023-02-06T21:14:06.405Z,-6.25
2023-02-06T21:16:37.718Z,-5.92
2023-02-06T21:19:07.985Z,-6.05
2023-02-06T21:21:37.647Z,-6.12
2023-02-06T21:24:07.319Z,-6.10
2023-02-06T21:26:36.592Z,-6.02
2023-02-06T21:29:06.490Z,-6.09
2023-02-06T21:31:38.934Z,-6.11
2023-02-06T21:34:10.117Z,-6.26
2023-02-06T21:36:39.832Z,-6.42
2023-02-06T21:39:08.531Z,-6.24
2023-02-06T21:41:37.506Z,-6.40
2023-02-06T21:44:06.319Z,-6.57
2023-02-06T21:46:36.520Z,-6.70
2023-02-06T21:49:06.463Z,-6.59
2023-02-06T21:51:34.806Z,-6.77
2023-02-06T21:54:03.116Z,-6.69
2023-02-06T21:56:31.586Z,-6.70
2023-02-06T21:58:59.956Z,-6.81
2023-02-06T22:01:29.972Z,-6.43
2023-02-06T22:03:59.939Z,-6.57
2023-02-06T22:06:29.015Z,-6.64
2023-02-06T22:09:04.571Z,-6.67
2023-02-06T22:11:32.949Z,-6.56
2023-02-06T22:14:03.617Z,-6.75
2023-02-06T22:16:32.313Z,-6.64
2023-02-06T22:19:02.362Z,-6.61
2023-02-06T22:21:31.868Z,-6.75
2023-02-06T22:24:01.794Z,-6.76
2023-02-06T22:26:31.265Z,-6.88
2023-02-06T22:28:59.945Z,-6.88
2023-02-06T22:31:32.277Z,-6.85
2023-02-06T22:34:02.972Z,-6.87
2023-02-06T22:36:33.068Z,-7.00
2023-02-06T22:39:06.586Z,-6.98
2023-02-06T22:41:35.841Z,-7.07
2023-02-06T22:44:04.183Z,-7.15
2023-02-06T22:46:34.458Z,-7.26
2023-02-06T22:49:05.794Z,-7.44
2023-02-06T22:51:34.151Z,-7.40
2023-02-06T22:54:02.777Z,-7.35
2023-02-06T22:56:34.969Z,-7.30
2023-02-06T22:59:05.436Z,-7.24
2023-02-06T23:01:35.014Z,-7.24
2023-02-06T23:04:05.912Z,-7.29
2023-02-06T23:06:35.393Z,-7.03
2023-02-06T23:09:06.480Z,-6.93
2023-02-06T23:11:35.337Z,-6.75
2023-02-06T23:14:05.598Z,-6.86
2023-02-06T23:16:35.574Z,-6.86
2023-02-06T23:19:07.375Z,-7.05
2023-02-06T23:21:40.551Z,-7.17
2023-02-06T23:24:10.066Z,-7.12
2023-02-06T23:26:38.864Z,-6.83
2023-02-06T23:29:09.046Z,-6.96
2023-02-06T23:31:37.637Z,-6.97
2023-02-06T23:34:07.517Z,-6.77
2023-02-06T23:36:35.822Z,-6.89
2023-02-06T23:39:05.149Z,-6.93
2023-02-06T23:41:35.344Z,-7.14
2023-02-06T23:44:06.589Z,-6.99
2023-02-06T23:46:36.555Z,-6.95
2023-02-06T23:49:05.276Z,-7.02
2023-02-06T23:51:35.934Z,-6.99
2023-02-06T23:54:04.501Z,-7.14
2023-02-06T23:56:33.441Z,-7.21
2023-02-06T23:59:02.882Z,-7.32
